createdAt,value
2023-03-06T00:01:41.013Z,24.30
2023-03-06T00:04:08.965Z,25.57
2023-03-06T00:06:35.889Z,21.80
2023-03-06T00:09:02.668Z,24.47
2023-03-06T00:11:29.451Z,23.43
2023-03-06T00:13:56.773Z,23.80
2023-03-06T00:16:23.692Z,21.27
2023-03-06T00:18:50.879Z,20.67
2023-03-06T00:21:18.007Z,21.37
2023-03-06T00:23:44.849Z,23.20
2023-03-06T00:26:12.154Z,20.27
2023-03-06T00:28:41.567Z,20.37
2023-03-06T00:31:10.218Z,18.27
2023-03-06T00:33:37.155Z,19.07
2023-03-06T00:36:05.026Z,22.90
2023-03-06T00:38:35.685Z,21.10
2023-03-06T00:41:10.067Z,25.43
2023-03-06T00:43:36.935Z,22.50
2023-03-06T00:46:04.038Z,23.90
2023-03-06T00:48:30.892Z,24.87
2023-03-06T00:50:57.684Z,20.63
2023-03-06T00:53:24.608Z,20.17
2023-03-06T00:55:51.582Z,25.83
2023-03-06T00:58:18.524Z,20.13
2023-03-06T01:00:45.703Z,22.33
2023-03-06T01:03:12.872Z,22.00
2023-03-06T01:05:39.843Z,18.60
2023-03-06T01:08:06.755Z,23.33
2023-03-06T01:10:33.568Z,23.57
2023-03-06T01:13:00.479Z,24.83
2023-03-06T01:15:27.239Z,30.07
2023-03-06T01:17:56.908Z,29.60
2023-03-06T01:20:24.045Z,26.30
2023-03-06T01:22:50.854Z,24.53
2023-03-06T01:25:17.713Z,23.03
2023-03-06T01:27:44.525Z,22.20
2023-03-06T01:30:11.896Z,17.37
2023-03-06T01:32:38.715Z,16.53
2023-03-06T01:35:06.591Z,15.83
2023-03-06T01:37:35.306Z,17.03
2023-03-06T01:40:03.268Z,18.47
2023-03-06T01:42:32.050Z,17.93
2023-03-06T01:45:00.166Z,14.83
2023-03-06T01:47:27.111Z,14.50
2023-03-06T01:49:54.059Z,17.20
2023-03-06T01:52:23.656Z,16.63
2023-03-06T01:54:52.224Z,17.07
2023-03-06T01:57:20.794Z,16.17
2023-03-06T01:59:49.991Z,16.37
2023-03-06T02:02:16.821Z,15.67
2023-03-06T02:04:44.358Z,14.90
2023-03-06T02:07:11.329Z,16.40
2023-03-06T02:09:39.129Z,16.83
2023-03-06T02:12:11.171Z,18.47
2023-03-06T02:14:39.305Z,19.97
2023-03-06T02:17:07.468Z,18.47
2023-03-06T02:19:56.415Z,17.57
2023-03-06T02:22:24.738Z,17.87
2023-03-06T02:24:51.550Z,18.63
2023-03-06T02:27:19.172Z,18.37
2023-03-06T02:29:46.076Z,20.93
2023-03-06T02:32:13.352Z,18.00
2023-03-06T02:34:40.161Z,18.57
2023-03-06T02:37:10.995Z,14.17
2023-03-06T02:39:41.420Z,17.33
2023-03-06T02:42:08.794Z,16.33
2023-03-06T02:44:36.250Z,12.67
2023-03-06T02:47:03.001Z,16.77
2023-03-06T02:49:29.837Z,15.20
2023-03-06T02:51:58.139Z,14.97
2023-03-06T02:54:24.926Z,15.10
2023-03-06T02:56:51.898Z,16.90
2023-03-06T02:59:18.693Z,19.37
2023-03-06T03:01:47.914Z,15.80
2023-03-06T03:04:15.101Z,13.73
2023-03-06T03:06:42.841Z,13.23
2023-03-06T03:09:10.714Z,12.47
2023-03-06T03:11:37.910Z,15.53
2023-03-06T03:14:04.806Z,14.57
2023-03-06T03:16:31.676Z,13.00
2023-03-06T03:18:59.062Z,12.37
2023-03-06T03:21:26.750Z,12.17
2023-03-06T03:23:55.151Z,15.53
2023-03-06T03:26:22.337Z,13.33
2023-03-06T03:29:05.269Z,14.80
2023-03-06T03:31:32.847Z,13.43
2023-03-06T03:34:01.217Z,12.93
2023-03-06T03:36:30.661Z,15.30
2023-03-06T03:38:58.060Z,12.50
2023-03-06T03:41:25.419Z,21.07
2023-03-06T03:43:52.280Z,16.70
2023-03-06T03:46:21.682Z,13.73
2023-03-06T03:48:50.616Z,9.50
2023-03-06T03:51:17.518Z,10.43
2023-03-06T03:53:49.410Z,13.10
2023-03-06T03:56:20.079Z,10.07
2023-03-06T03:58:55.282Z,14.50
2023-03-06T04:01:23.568Z,11.00
2023-03-06T04:03:50.467Z,16.80
2023-03-06T04:06:17.919Z,13.57
2023-03-06T04:08:45.432Z,11.80
2023-03-06T04:11:12.426Z,13.23
2023-03-06T04:13:40.034Z,11.50
2023-03-06T04:16:07.153Z,14.30
2023-03-06T04:18:35.486Z,13.47
2023-03-06T04:21:05.142Z,14.27
2023-03-06T04:23:32.586Z,13.97
2023-03-06T04:25:59.818Z,15.30
2023-03-06T04:28:27.583Z,11.23
2023-03-06T04:30:54.514Z,14.10
2023-03-06T04:33:21.361Z,12.37
2023-03-06T04:35:48.469Z,13.60
2023-03-06T04:38:20.905Z,11.77
2023-03-06T04:40:49.806Z,17.03
2023-03-06T04:43:17.137Z,15.23
2023-03-06T04:45:44.033Z,13.67
2023-03-06T04:48:13.435Z,14.30
2023-03-06T04:50:40.353Z,12.90
2023-03-06T04:53:08.767Z,13.10
2023-03-06T04:55:35.709Z,14.63
2023-03-06T04:58:02.478Z,13.40
2023-03-06T05:00:30.805Z,14.50
2023-03-06T05:02:58.722Z,14.30
2023-03-06T05:05:25.889Z,17.23
2023-03-06T05:07:53.230Z,16.83
2023-03-06T05:10:20.560Z,17.03
2023-03-06T05:12:47.377Z,17.13
2023-03-06T05:15:14.623Z,12.43
2023-03-06T05:17:41.454Z,14.60
2023-03-06T05:20:09.802Z,15.10
2023-03-06T05:22:36.808Z,15.37
2023-03-06T05:25:05.053Z,15.20
2023-03-06T05:27:32.405Z,14.27
2023-03-06T05:29:59.509Z,12.73
2023-03-06T05:32:26.716Z,19.40
2023-03-06T05:34:53.561Z,13.63
2023-03-06T05:37:20.912Z,13.77
2023-03-06T05:39:48.065Z,14.57
2023-03-06T05:42:14.791Z,14.83
2023-03-06T05:44:42.030Z,13.13
2023-03-06T05:47:09.234Z,15.17
2023-03-06T05:49:36.422Z,16.13
2023-03-06T05:52:05.805Z,14.10
2023-03-06T05:54:33.726Z,14.60
2023-03-06T05:57:01.002Z,18.93
2023-03-06T05:59:28.788Z,15.07
2023-03-06T06:01:55.795Z,12.60
2023-03-06T06:04:23.598Z,14.63
2023-03-06T06:06:54.649Z,15.53
2023-03-06T06:09:22.580Z,12.63
2023-03-06T06:11:58.230Z,13.27
2023-03-06T06:14:25.340Z,13.53
2023-03-06T06:16:52.105Z,12.67
2023-03-06T06:19:20.621Z,12.73
2023-03-06T06:21:48.619Z,13.70
2023-03-06T06:24:16.208Z,13.97
2023-03-06T06:26:43.451Z,13.27
2023-03-06T06:29:10.753Z,12.40
2023-03-06T06:31:37.819Z,12.30
2023-03-06T06:34:04.939Z,11.80
2023-03-06T06:36:32.059Z,13.80
2023-03-06T06:38:59.178Z,14.50
2023-03-06T06:41:42.725Z,14.43
2023-03-06T06:44:15.611Z,13.00
2023-03-06T06:49:32.320Z,12.50
2023-03-06T06:51:59.172Z,16.17
2023-03-06T06:54:26.101Z,18.10
2023-03-06T06:56:52.982Z,17.10
2023-03-06T06:59:19.950Z,20.60
2023-03-06T07:01:46.842Z,12.77
2023-03-06T07:04:14.232Z,15.83
2023-03-06T07:06:41.580Z,18.10
2023-03-06T07:09:08.337Z,19.90
2023-03-06T07:11:35.148Z,18.07
2023-03-06T07:14:02.192Z,21.83
2023-03-06T07:16:29.116Z,15.60
2023-03-06T07:18:55.887Z,16.23
2023-03-06T07:21:22.727Z,10.60
2023-03-06T07:23:49.705Z,15.90
2023-03-06T07:26:16.431Z,20.00
2023-03-06T07:28:52.319Z,18.27
2023-03-06T07:31:22.266Z,19.47
2023-03-06T07:33:50.001Z,18.10
2023-03-06T07:36:16.842Z,20.27
2023-03-06T07:38:43.714Z,20.63
2023-03-06T07:41:13.727Z,18.70
2023-03-06T07:43:41.400Z,20.47
2023-03-06T07:46:08.305Z,20.97
2023-03-06T07:48:35.918Z,24.17
2023-03-06T07:51:04.610Z,22.77
2023-03-06T07:53:31.843Z,22.70
2023-03-06T07:55:58.788Z,26.30
2023-03-06T07:58:26.060Z,25.87
2023-03-06T08:00:53.075Z,25.70
2023-03-06T08:03:20.011Z,24.93
2023-03-06T08:05:46.839Z,26.90
2023-03-06T08:08:13.757Z,28.97
2023-03-06T08:10:40.647Z,28.90
2023-03-06T08:13:07.533Z,28.80
2023-03-06T08:15:34.341Z,29.67
2023-03-06T08:18:01.160Z,28.33
2023-03-06T08:20:27.939Z,26.63
2023-03-06T08:22:54.924Z,26.40
2023-03-06T08:25:21.787Z,29.40
2023-03-06T08:27:48.684Z,29.73
2023-03-06T08:30:15.638Z,25.30
2023-03-06T08:32:42.572Z,28.83
2023-03-06T08:35:09.471Z,24.10
2023-03-06T08:37:36.438Z,28.20
2023-03-06T08:40:04.999Z,25.97
2023-03-06T08:42:32.093Z,24.33
2023-03-06T08:44:58.984Z,29.70
2023-03-06T08:47:25.822Z,25.33
2023-03-06T08:49:52.757Z,27.73
2023-03-06T08:52:20.140Z,26.13
2023-03-06T08:54:46.977Z,27.67
2023-03-06T08:57:13.833Z,27.43
2023-03-06T08:59:42.268Z,25.63
2023-03-06T09:02:12.212Z,29.53
2023-03-06T09:04:39.083Z,24.57
2023-03-06T09:07:06.040Z,23.93
2023-03-06T09:09:32.791Z,22.67
2023-03-06T09:11:59.621Z,24.37
2023-03-06T09:14:26.421Z,24.10
2023-03-06T09:16:53.300Z,25.37
2023-03-06T09:19:20.198Z,22.80
2023-03-06T09:21:47.118Z,24.47
2023-03-06T09:24:14.162Z,22.93
2023-03-06T09:26:46.066Z,24.77
2023-03-06T09:29:16.484Z,21.97
2023-03-06T09:31:43.764Z,26.20
2023-03-06T09:34:10.814Z,28.00
2023-03-06T09:36:53.307Z,25.40
2023-03-06T09:39:22.432Z,23.23
2023-03-06T09:41:50.019Z,22.90
2023-03-06T09:44:18.745Z,21.23
2023-03-06T09:46:55.175Z,22.30
2023-03-06T09:49:23.227Z,23.57
2023-03-06T09:51:55.900Z,24.50
2023-03-06T09:54:27.475Z,22.20
2023-03-06T09:56:54.264Z,23.77
2023-03-06T09:59:22.852Z,22.17
2023-03-06T10:02:01.605Z,30.63
2023-03-06T10:04:31.194Z,22.77
2023-03-06T10:07:01.429Z,26.93
2023-03-06T10:09:34.102Z,19.30
2023-03-06T10:12:02.329Z,26.77
2023-03-06T10:14:40.359Z,24.20
2023-03-06T10:17:14.666Z,23.00
2023-03-06T10:19:42.389Z,22.90
2023-03-06T10:22:27.547Z,22.37
2023-03-06T10:24:59.713Z,14.73
2023-03-06T10:27:32.549Z,15.47
2023-03-06T10:30:14.893Z,13.80
2023-03-06T10:32:51.487Z,12.83
2023-03-06T10:35:19.835Z,12.53
2023-03-06T10:37:46.794Z,13.27
2023-03-06T10:40:19.349Z,11.67
2023-03-06T10:42:46.221Z,9.07
2023-03-06T10:45:15.012Z,10.27
2023-03-06T10:47:42.427Z,11.73
2023-03-06T10:50:36.251Z,12.57
2023-03-06T10:53:05.256Z,11.97
2023-03-06T10:55:33.492Z,11.13
2023-03-06T10:58:19.401Z,11.70
2023-03-06T11:00:46.313Z,10.37
2023-03-06T11:03:19.156Z,6.93
2023-03-06T11:06:06.320Z,9.90
2023-03-06T11:08:33.592Z,9.13
2023-03-06T11:11:11.254Z,13.77
2023-03-06T11:13:39.957Z,10.83
2023-03-06T11:16:16.377Z,9.47
2023-03-06T11:18:54.650Z,9.03
2023-03-06T11:21:24.903Z,9.07
2023-03-06T11:23:52.260Z,6.83
2023-03-06T11:26:28.041Z,13.03
2023-03-06T11:29:04.796Z,8.57
2023-03-06T11:31:33.638Z,11.23
2023-03-06T11:34:14.591Z,12.43
2023-03-06T11:36:41.438Z,12.67
2023-03-06T11:39:26.285Z,18.00
2023-03-06T11:42:11.086Z,13.07
2023-03-06T11:44:54.407Z,16.20
2023-03-06T11:47:27.893Z,13.43
2023-03-06T11:49:54.706Z,12.53
2023-03-06T11:52:34.889Z,13.00
2023-03-06T11:55:02.050Z,13.07
2023-03-06T11:57:51.877Z,12.10
2023-03-06T12:00:38.947Z,13.77
2023-03-06T12:03:06.123Z,17.07
2023-03-06T12:05:35.671Z,15.23
2023-03-06T12:08:21.467Z,13.80
2023-03-06T12:10:51.884Z,16.57
2023-03-06T12:13:28.137Z,14.80
2023-03-06T12:15:55.002Z,17.17
2023-03-06T12:18:37.098Z,12.00
2023-03-06T12:21:04.269Z,15.00
2023-03-06T12:23:49.992Z,16.43
2023-03-06T12:26:16.934Z,12.03
2023-03-06T12:29:00.158Z,13.87
2023-03-06T12:31:32.380Z,14.17
2023-03-06T12:33:59.146Z,14.37
2023-03-06T12:36:26.018Z,13.67
2023-03-06T12:39:07.905Z,10.90
2023-03-06T12:41:52.923Z,10.33
2023-03-06T12:44:23.139Z,9.20
2023-03-06T12:46:54.381Z,10.37
2023-03-06T12:49:32.648Z,9.87
2023-03-06T12:52:00.897Z,10.70
2023-03-06T12:54:31.886Z,10.07
2023-03-06T12:57:00.090Z,9.43
2023-03-06T12:59:44.632Z,9.43
2023-03-06T13:02:30.482Z,9.60
2023-03-06T13:05:03.759Z,10.30
2023-03-06T13:07:43.552Z,11.17
2023-03-06T13:10:27.638Z,13.00
2023-03-06T13:13:01.837Z,11.47
2023-03-06T13:15:42.696Z,15.50
2023-03-06T13:18:21.586Z,13.53
2023-03-06T13:20:54.452Z,10.17
2023-03-06T13:23:30.411Z,14.50
2023-03-06T13:25:58.370Z,12.27
2023-03-06T13:28:46.358Z,11.27
2023-03-06T13:31:26.334Z,13.67
2023-03-06T13:33:59.092Z,12.07
2023-03-06T13:36:27.641Z,10.87
2023-03-06T13:38:54.557Z,14.90
2023-03-06T13:41:21.460Z,12.80
2023-03-06T13:44:20.801Z,14.30
2023-03-06T13:46:56.593Z,16.80
2023-03-06T13:49:24.307Z,10.07
2023-03-06T13:51:53.979Z,13.27
2023-03-06T13:54:46.856Z,10.10
2023-03-06T13:57:16.426Z,17.53
2023-03-06T13:59:54.410Z,7.60
2023-03-06T14:02:23.901Z,8.47
2023-03-06T14:04:58.546Z,7.77
2023-03-06T14:07:27.918Z,7.10
2023-03-06T14:09:59.702Z,6.37
2023-03-06T14:12:31.087Z,6.40
2023-03-06T14:14:59.020Z,5.87
2023-03-06T14:17:38.029Z,7.83
2023-03-06T14:20:13.297Z,4.63
2023-03-06T14:22:40.204Z,5.30
2023-03-06T14:25:30.230Z,4.93
2023-03-06T14:28:05.685Z,5.37
2023-03-06T14:30:48.338Z,4.67
2023-03-06T14:33:24.426Z,6.33
2023-03-06T14:35:52.045Z,5.33
2023-03-06T14:38:19.008Z,6.47
2023-03-06T14:40:45.883Z,12.23
2023-03-06T14:43:20.663Z,8.73
2023-03-06T14:45:57.991Z,7.80
2023-03-06T14:48:26.739Z,6.93
2023-03-06T14:50:55.448Z,10.93
2023-03-06T14:53:22.305Z,9.23
2023-03-06T14:55:50.832Z,10.43
2023-03-06T14:58:22.071Z,11.57
2023-03-06T15:00:51.584Z,9.03
2023-03-06T15:03:20.669Z,12.83
2023-03-06T15:05:47.884Z,10.77
2023-03-06T15:08:18.562Z,14.50
2023-03-06T15:10:55.161Z,18.37
2023-03-06T15:13:23.486Z,15.93
2023-03-06T15:15:56.165Z,11.70
2023-03-06T15:18:28.946Z,11.50
2023-03-06T15:21:06.129Z,12.33
2023-03-06T15:23:40.729Z,15.27
2023-03-06T15:26:27.031Z,10.83
2023-03-06T15:29:09.365Z,14.10
2023-03-06T15:31:38.116Z,11.73
2023-03-06T15:34:08.007Z,10.73
2023-03-06T15:36:37.940Z,13.40
2023-03-06T15:39:23.154Z,11.83
2023-03-06T15:41:56.443Z,14.53
2023-03-06T15:44:23.314Z,13.30
2023-03-06T15:46:53.915Z,13.13
2023-03-06T15:49:26.299Z,19.10
2023-03-06T15:51:53.068Z,18.53
2023-03-06T15:54:20.214Z,14.53
2023-03-06T15:56:47.969Z,13.57
2023-03-06T15:59:24.780Z,14.17
2023-03-06T16:01:52.310Z,15.90
2023-03-06T16:04:20.069Z,16.03
2023-03-06T16:06:47.305Z,16.77
2023-03-06T16:09:14.594Z,13.33
2023-03-06T16:11:44.950Z,16.43
2023-03-06T16:14:19.041Z,17.03
2023-03-06T16:16:46.322Z,17.30
2023-03-06T16:19:25.353Z,15.53
2023-03-06T16:21:52.814Z,13.93
2023-03-06T16:24:19.661Z,13.50
2023-03-06T16:26:53.533Z,13.00
2023-03-06T16:29:24.536Z,18.13
2023-03-06T16:31:51.783Z,13.60
2023-03-06T16:34:21.566Z,14.07
2023-03-06T16:36:48.900Z,14.23
2023-03-06T16:39:16.470Z,10.30
2023-03-06T16:41:45.122Z,12.10
2023-03-06T16:44:12.465Z,12.17
2023-03-06T16:46:40.906Z,11.23
2023-03-06T16:49:07.873Z,10.70
2023-03-06T16:51:34.847Z,10.57
2023-03-06T16:54:01.656Z,16.03
2023-03-06T16:56:28.448Z,14.13
2023-03-06T16:58:55.445Z,17.87
2023-03-06T17:01:22.237Z,13.43
2023-03-06T17:03:49.243Z,16.43
2023-03-06T17:06:20.318Z,13.43
2023-03-06T17:08:47.727Z,16.60
2023-03-06T17:11:15.006Z,13.43
2023-03-06T17:13:41.998Z,150.97
2023-03-06T17:16:11.812Z,20.63
2023-03-06T17:18:38.678Z,22.37
2023-03-06T17:21:05.518Z,15.13
2023-03-06T17:23:32.314Z,15.87
2023-03-06T17:26:28.931Z,16.97
2023-03-06T17:28:56.313Z,15.60
2023-03-06T17:31:25.562Z,15.33
2023-03-06T17:33:54.468Z,14.60
2023-03-06T17:36:21.392Z,16.50
2023-03-06T17:38:48.238Z,19.00
2023-03-06T17:41:14.965Z,15.63
2023-03-06T17:43:41.876Z,17.40
2023-03-06T17:46:10.477Z,19.17
2023-03-06T17:48:37.860Z,19.27
2023-03-06T17:51:05.161Z,15.90
2023-03-06T17:53:31.961Z,14.37
2023-03-06T17:55:58.845Z,16.53
2023-03-06T17:58:26.003Z,17.47
2023-03-06T18:00:53.284Z,14.80
2023-03-06T18:03:20.135Z,22.33
2023-03-06T18:05:46.928Z,17.17
2023-03-06T18:08:14.299Z,16.77
2023-03-06T18:10:41.838Z,19.23
2023-03-06T18:13:09.135Z,18.63
2023-03-06T18:15:40.392Z,15.33
2023-03-06T18:18:08.014Z,16.07
2023-03-06T18:20:35.198Z,21.63
2023-03-06T18:23:03.842Z,20.47
2023-03-06T18:25:31.530Z,15.97
2023-03-06T18:27:58.371Z,15.93
2023-03-06T18:30:25.769Z,19.90
2023-03-06T18:32:52.665Z,18.43
2023-03-06T18:35:19.604Z,18.97
2023-03-06T18:37:46.434Z,24.13
2023-03-06T18:40:13.557Z,17.27
2023-03-06T18:42:40.320Z,18.13
2023-03-06T18:45:07.558Z,21.53
2023-03-06T18:47:34.457Z,16.00
2023-03-06T18:50:02.863Z,23.53
2023-03-06T18:52:29.599Z,19.70
2023-03-06T18:54:56.426Z,25.03
2023-03-06T18:57:23.204Z,26.57
2023-03-06T18:59:50.249Z,26.63
2023-03-06T19:02:17.084Z,24.27
2023-03-06T19:04:43.909Z,28.90
2023-03-06T19:07:12.633Z,27.60
2023-03-06T19:09:39.603Z,32.13
2023-03-06T19:12:06.547Z,27.73
2023-03-06T19:14:33.368Z,29.33
2023-03-06T19:17:00.241Z,32.53
2023-03-06T19:19:29.381Z,67.87
2023-03-06T19:21:59.657Z,29.77
2023-03-06T19:24:26.848Z,45.07
2023-03-06T19:26:53.609Z,29.57
2023-03-06T19:29:20.473Z,29.03
2023-03-06T19:31:47.503Z,26.60
2023-03-06T19:34:14.426Z,25.43
2023-03-06T19:36:41.293Z,30.20
2023-03-06T19:39:09.639Z,24.37
2023-03-06T19:41:36.734Z,29.17
2023-03-06T19:44:06.419Z,23.77
2023-03-06T19:46:33.540Z,24.67
2023-03-06T19:49:11.842Z,23.97
2023-03-06T19:51:38.958Z,25.43
2023-03-06T19:54:05.740Z,25.77
2023-03-06T19:56:33.824Z,32.30
2023-03-06T19:59:00.666Z,28.47
2023-03-06T20:01:28.279Z,27.23
2023-03-06T20:03:59.584Z,24.07
2023-03-06T20:06:31.240Z,25.03
2023-03-06T20:08:58.251Z,25.67
2023-03-06T20:11:26.283Z,27.57
2023-03-06T20:13:53.676Z,29.60
2023-03-06T20:16:20.569Z,27.00
2023-03-06T20:18:47.641Z,29.27
2023-03-06T20:21:14.792Z,29.80
2023-03-06T20:23:41.883Z,34.93
2023-03-06T20:26:10.887Z,30.30
2023-03-06T20:28:39.251Z,31.90
2023-03-06T20:31:09.309Z,34.60
2023-03-06T20:33:36.262Z,29.93
2023-03-06T20:36:03.227Z,33.50
2023-03-06T20:38:30.116Z,31.23
2023-03-06T20:40:58.062Z,32.07
2023-03-06T20:43:24.949Z,36.23
2023-03-06T20:45:59.119Z,30.37
2023-03-06T20:48:26.010Z,35.03
2023-03-06T20:51:00.199Z,31.80
2023-03-06T20:53:27.955Z,30.43
2023-03-06T20:55:54.774Z,34.30
2023-03-06T20:58:23.480Z,33.83
2023-03-06T21:00:50.334Z,36.03
2023-03-06T21:03:17.189Z,37.10
2023-03-06T21:05:45.961Z,35.27
2023-03-06T21:08:12.835Z,36.83
2023-03-06T21:10:39.648Z,34.37
2023-03-06T21:13:06.444Z,35.17
2023-03-06T21:15:33.235Z,36.07
2023-03-06T21:18:00.493Z,32.30
2023-03-06T21:20:27.311Z,38.47
2023-03-06T21:22:54.224Z,37.20
2023-03-06T21:25:21.005Z,36.90
2023-03-06T21:27:48.011Z,35.87
2023-03-06T21:30:14.993Z,35.77
2023-03-06T21:32:41.767Z,36.70
2023-03-06T21:35:08.788Z,34.97
2023-03-06T21:37:35.595Z,33.60
2023-03-06T21:40:02.399Z,36.80
2023-03-06T21:42:29.596Z,41.03
2023-03-06T21:44:56.397Z,34.07
2023-03-06T21:47:23.205Z,32.30
2023-03-06T21:49:50.047Z,34.20
2023-03-06T21:52:16.851Z,41.83
2023-03-06T21:54:43.723Z,40.87
2023-03-06T21:57:10.502Z,42.67
2023-03-06T21:59:37.821Z,45.83
2023-03-06T22:02:04.670Z,45.77
2023-03-06T22:04:31.817Z,45.00
2023-03-06T22:06:58.728Z,53.80
2023-03-06T22:09:25.567Z,52.30
2023-03-06T22:11:52.440Z,44.87
2023-03-06T22:14:19.823Z,56.27
2023-03-06T22:16:46.645Z,49.37
2023-03-06T22:19:13.598Z,50.97
2023-03-06T22:21:40.541Z,48.27
2023-03-06T22:24:07.383Z,48.60
2023-03-06T22:26:34.229Z,46.73
2023-03-06T22:29:00.980Z,44.40
2023-03-06T22:31:29.270Z,49.00
2023-03-06T22:33:57.168Z,50.80
2023-03-06T22:36:24.186Z,48.80
2023-03-06T22:38:54.366Z,49.17
2023-03-06T22:41:21.305Z,45.37
2023-03-06T22:43:48.040Z,49.07
2023-03-06T22:46:16.255Z,46.33
2023-03-06T22:48:43.542Z,53.40
2023-03-06T22:51:20.197Z,46.80
2023-03-06T22:53:47.778Z,48.13
2023-03-06T22:56:15.748Z,52.17
2023-03-06T22:58:45.475Z,44.00
2023-03-06T23:01:12.319Z,49.83
2023-03-06T23:03:40.342Z,51.40
2023-03-06T23:06:08.568Z,51.10
2023-03-06T23:08:35.449Z,45.83
2023-03-06T23:11:02.157Z,57.87
2023-03-06T23:13:47.566Z,54.60
2023-03-06T23:16:33.028Z,51.97
2023-03-06T23:19:18.336Z,51.50
2023-03-06T23:22:03.653Z,46.70
2023-03-06T23:24:49.631Z,52.73
2023-03-06T23:27:17.119Z,53.07
2023-03-06T23:29:44.050Z,53.67
2023-03-06T23:32:10.882Z,51.60
2023-03-06T23:34:37.730Z,44.30
2023-03-06T23:37:04.702Z,51.90
2023-03-06T23:39:32.570Z,55.77
2023-03-06T23:42:01.514Z,51.97
2023-03-06T23:44:28.314Z,50.50
2023-03-06T23:46:55.810Z,48.57
2023-03-06T23:49:22.675Z,46.43
2023-03-06T23:51:49.434Z,49.90
2023-03-06T23:54:16.670Z,48.67
2023-03-06T23:56:44.517Z,45.87
2023-03-06T23:59:12.075Z,48.23
